AFR4PA LFBO-LEBB
Flight info
| Callsign | AFR4PA |
|---|---|
| Flight time | 0h 44m |
| Altitude | 27000 |
| Route | GAUDE DCT LATEK N995 PPN M601 CEGAM |
| Aircraft | A320/M-SDE3FGHIRWY/LB1 |
Departure
| Time | 2026-05-01 09:20 |
|---|---|
| Airport | Toulouse-Blagnac Airport (LFBO) |
Arrival
| Time | 2026-05-01 10:04 |
|---|---|
| Airport | Bilbao Airport (LEBB) |
| Time | Latitude | Longitude | Altitude | Speed | Heading |
|---|---|---|---|---|---|
| 2026-05-01 08:57 | 43.62928 | 1.37345 | 493 ft | 0 kts | 84° |
| 2026-05-01 09:12 | 43.62926 | 1.37321 | 492 ft | 4 kts | 76° |
| 2026-05-01 09:12 | 43.62917 | 1.37287 | 483 ft | 4 kts | 56° |
| 2026-05-01 09:12 | 43.62899 | 1.37264 | 485 ft | 4 kts | 4° |
| 2026-05-01 09:12 | 43.62888 | 1.37265 | 487 ft | 0 kts | 323° |
| 2026-05-01 09:14 | 43.62892 | 1.37261 | 485 ft | 4 kts | 323° |
| 2026-05-01 09:14 | 43.62956 | 1.37193 | 489 ft | 19 kts | 322° |
| 2026-05-01 09:14 | 43.63018 | 1.37079 | 494 ft | 4 kts | 238° |
| 2026-05-01 09:15 | 43.62970 | 1.36991 | 488 ft | 22 kts | 233° |
| 2026-05-01 09:15 | 43.63015 | 1.36824 | 486 ft | 21 kts | 320° |
| 2026-05-01 09:15 | 43.63128 | 1.36706 | 488 ft | 22 kts | 322° |
| 2026-05-01 09:15 | 43.63263 | 1.36567 | 485 ft | 27 kts | 323° |
| 2026-05-01 09:16 | 43.63426 | 1.36397 | 489 ft | 32 kts | 323° |
| 2026-05-01 09:16 | 43.63615 | 1.36203 | 494 ft | 36 kts | 323° |
| 2026-05-01 09:16 | 43.63827 | 1.35978 | 485 ft | 41 kts | 322° |
| 2026-05-01 09:17 | 43.64307 | 1.35483 | 492 ft | 44 kts | 322° |
| 2026-05-01 09:17 | 43.64455 | 1.35278 | 492 ft | 17 kts | 289° |
| 2026-05-01 09:17 | 43.64521 | 1.35013 | 487 ft | 15 kts | 294° |
| 2026-05-01 09:18 | 43.64511 | 1.34809 | 489 ft | 30 kts | 236° |
| 2026-05-01 09:18 | 43.64285 | 1.34724 | 486 ft | 6 kts | 144° |
| 2026-05-01 09:19 | 43.63972 | 1.35053 | 489 ft | 83 kts | 143° |
| 2026-05-01 09:19 | 43.63357 | 1.35690 | 486 ft | 136 kts | 142° |
| 2026-05-01 09:19 | 43.62503 | 1.36571 | 694 ft | 163 kts | 141° |
| 2026-05-01 09:20 | 43.60604 | 1.38517 | 2020 ft | 168 kts | 140° |
| 2026-05-01 09:20 | 43.58572 | 1.40644 | 2778 ft | 212 kts | 142° |
| 2026-05-01 09:21 | 43.55939 | 1.43342 | 3962 ft | 245 kts | 143° |
| 2026-05-01 09:21 | 43.54547 | 1.44761 | 4821 ft | 252 kts | 142° |
| 2026-05-01 09:21 | 43.51625 | 1.47752 | 6331 ft | 270 kts | 143° |
| 2026-05-01 09:22 | 43.48162 | 1.49613 | 7884 ft | 279 kts | 188° |
| 2026-05-01 09:22 | 43.45278 | 1.46417 | 9575 ft | 285 kts | 251° |
| 2026-05-01 09:23 | 43.44996 | 1.43707 | 10402 ft | 290 kts | 265° |
| 2026-05-01 09:23 | 43.43650 | 1.38223 | 10933 ft | 330 kts | 229° |
| 2026-05-01 09:24 | 43.40420 | 1.33422 | 12007 ft | 348 kts | 226° |
| 2026-05-01 09:24 | 43.38747 | 1.30998 | 12736 ft | 351 kts | 226° |
| 2026-05-01 09:24 | 43.35358 | 1.26090 | 14184 ft | 357 kts | 226° |
| 2026-05-01 09:25 | 43.32102 | 1.20848 | 15401 ft | 366 kts | 238° |
| 2026-05-01 09:25 | 43.30475 | 1.14194 | 16595 ft | 376 kts | 263° |
| 2026-05-01 09:26 | 43.30459 | 1.10591 | 17184 ft | 380 kts | 271° |
| 2026-05-01 09:26 | 43.30684 | 1.03285 | 18357 ft | 386 kts | 271° |
| 2026-05-01 09:26 | 43.30524 | 0.99601 | 18845 ft | 388 kts | 259° |
| 2026-05-01 09:27 | 43.28482 | 0.92755 | 19827 ft | 393 kts | 234° |
| 2026-05-01 09:27 | 43.26678 | 0.89934 | 20323 ft | 395 kts | 222° |
| 2026-05-01 09:27 | 43.24486 | 0.87639 | 20825 ft | 398 kts | 216° |
| 2026-05-01 09:28 | 43.22228 | 0.85431 | 21328 ft | 400 kts | 216° |
| 2026-05-01 09:28 | 43.19992 | 0.83235 | 21806 ft | 402 kts | 216° |
| 2026-05-01 09:28 | 43.17714 | 0.80995 | 22296 ft | 404 kts | 216° |
| 2026-05-01 09:28 | 43.15423 | 0.78743 | 22774 ft | 406 kts | 216° |
| 2026-05-01 09:29 | 43.10800 | 0.74215 | 23712 ft | 411 kts | 216° |
| 2026-05-01 09:29 | 43.08474 | 0.71942 | 24107 ft | 413 kts | 216° |
| 2026-05-01 09:30 | 43.03861 | 0.67213 | 24864 ft | 415 kts | 224° |
| 2026-05-01 09:30 | 43.01950 | 0.64262 | 25235 ft | 416 kts | 234° |
| 2026-05-01 09:30 | 42.99498 | 0.57126 | 25976 ft | 419 kts | 256° |
| 2026-05-01 09:31 | 42.99035 | 0.53183 | 26329 ft | 422 kts | 262° |
| 2026-05-01 09:31 | 42.98687 | 0.49194 | 26697 ft | 424 kts | 262° |
| 2026-05-01 09:31 | 42.97955 | 0.41186 | 27211 ft | 425 kts | 261° |
| 2026-05-01 09:32 | 42.97576 | 0.37180 | 27226 ft | 425 kts | 261° |
| 2026-05-01 09:32 | 42.96815 | 0.29173 | 27227 ft | 425 kts | 261° |
| 2026-05-01 09:32 | 42.96439 | 0.25212 | 27229 ft | 425 kts | 261° |
| 2026-05-01 09:33 | 42.96059 | 0.21205 | 27225 ft | 426 kts | 261° |
| 2026-05-01 09:33 | 42.95680 | 0.17198 | 27229 ft | 426 kts | 261° |
| 2026-05-01 09:33 | 42.94923 | 0.09194 | 27229 ft | 425 kts | 261° |
| 2026-05-01 09:34 | 42.94541 | 0.05189 | 27225 ft | 426 kts | 261° |
| 2026-05-01 09:34 | 42.94153 | 0.01178 | 27226 ft | 425 kts | 261° |
| 2026-05-01 09:34 | 42.93376 | -0.06826 | 27227 ft | 425 kts | 261° |
| 2026-05-01 09:35 | 42.92986 | -0.10821 | 27227 ft | 426 kts | 261° |
| 2026-05-01 09:35 | 42.92204 | -0.18834 | 27217 ft | 425 kts | 261° |
| 2026-05-01 09:35 | 42.91810 | -0.22825 | 27214 ft | 425 kts | 261° |
| 2026-05-01 09:36 | 42.91414 | -0.26835 | 27219 ft | 426 kts | 261° |
| 2026-05-01 09:36 | 42.91019 | -0.30838 | 27218 ft | 426 kts | 261° |
| 2026-05-01 09:36 | 42.90621 | -0.34837 | 27213 ft | 425 kts | 261° |
| 2026-05-01 09:36 | 42.90219 | -0.38835 | 27200 ft | 425 kts | 261° |
| 2026-05-01 09:37 | 42.89818 | -0.42831 | 27211 ft | 426 kts | 261° |
| 2026-05-01 09:37 | 42.89017 | -0.50830 | 27202 ft | 426 kts | 261° |
| 2026-05-01 09:37 | 42.88612 | -0.54830 | 27201 ft | 426 kts | 261° |
| 2026-05-01 09:38 | 42.87799 | -0.62773 | 27195 ft | 426 kts | 260° |
| 2026-05-01 09:38 | 42.87384 | -0.66773 | 27197 ft | 426 kts | 260° |
| 2026-05-01 09:38 | 42.86916 | -0.70760 | 27196 ft | 426 kts | 259° |
| 2026-05-01 09:39 | 42.85853 | -0.78701 | 27193 ft | 426 kts | 258° |
| 2026-05-01 09:39 | 42.85302 | -0.82667 | 27202 ft | 426 kts | 258° |
| 2026-05-01 09:39 | 42.84757 | -0.86626 | 27189 ft | 426 kts | 258° |
| 2026-05-01 09:40 | 42.84218 | -0.90598 | 27178 ft | 426 kts | 258° |
| 2026-05-01 09:40 | 42.83158 | -0.98551 | 27189 ft | 427 kts | 258° |
| 2026-05-01 09:40 | 42.82630 | -1.02534 | 27184 ft | 427 kts | 258° |
| 2026-05-01 09:41 | 42.82101 | -1.06517 | 27185 ft | 428 kts | 258° |
| 2026-05-01 09:41 | 42.81039 | -1.14490 | 27185 ft | 428 kts | 258° |
| 2026-05-01 09:41 | 42.80501 | -1.18477 | 27186 ft | 428 kts | 258° |
| 2026-05-01 09:42 | 42.79961 | -1.22464 | 27200 ft | 428 kts | 258° |
| 2026-05-01 09:42 | 42.79414 | -1.26455 | 27192 ft | 429 kts | 258° |
| 2026-05-01 09:42 | 42.78320 | -1.34434 | 27193 ft | 429 kts | 258° |
| 2026-05-01 09:43 | 42.77238 | -1.42378 | 27197 ft | 429 kts | 258° |
| 2026-05-01 09:43 | 42.76690 | -1.46375 | 27201 ft | 430 kts | 258° |
| 2026-05-01 09:43 | 42.76141 | -1.50376 | 27203 ft | 430 kts | 258° |
| 2026-05-01 09:44 | 42.75032 | -1.58375 | 27202 ft | 430 kts | 258° |
| 2026-05-01 09:44 | 42.74493 | -1.62372 | 27205 ft | 431 kts | 261° |
| 2026-05-01 09:44 | 42.74338 | -1.66448 | 27202 ft | 433 kts | 271° |
| 2026-05-01 09:45 | 42.74732 | -1.70514 | 27201 ft | 435 kts | 281° |
| 2026-05-01 09:45 | 42.77106 | -1.78111 | 27200 ft | 441 kts | 300° |
| 2026-05-01 09:45 | 42.78764 | -1.81622 | 27198 ft | 441 kts | 300° |
| 2026-05-01 09:46 | 42.80421 | -1.85139 | 27202 ft | 441 kts | 300° |
| 2026-05-01 09:46 | 42.82070 | -1.88656 | 27203 ft | 441 kts | 300° |
| 2026-05-01 09:46 | 42.83718 | -1.92180 | 27205 ft | 441 kts | 300° |
| 2026-05-01 09:46 | 42.85364 | -1.95702 | 27106 ft | 439 kts | 300° |
| 2026-05-01 09:47 | 42.87004 | -1.99207 | 26275 ft | 439 kts | 300° |
| 2026-05-01 09:47 | 42.88643 | -2.02714 | 25604 ft | 437 kts | 300° |
| 2026-05-01 09:47 | 42.90266 | -2.06195 | 24970 ft | 433 kts | 300° |
| 2026-05-01 09:47 | 42.91878 | -2.09652 | 24344 ft | 430 kts | 300° |
| 2026-05-01 09:48 | 42.93479 | -2.13082 | 23733 ft | 427 kts | 301° |
| 2026-05-01 09:48 | 42.95069 | -2.16494 | 23059 ft | 424 kts | 300° |
| 2026-05-01 09:48 | 42.96641 | -2.19881 | 22422 ft | 421 kts | 300° |
| 2026-05-01 09:48 | 42.98195 | -2.23235 | 21815 ft | 417 kts | 300° |
| 2026-05-01 09:49 | 42.99743 | -2.26564 | 21219 ft | 414 kts | 300° |
| 2026-05-01 09:49 | 43.01291 | -2.29866 | 20644 ft | 410 kts | 300° |
| 2026-05-01 09:49 | 43.02826 | -2.33128 | 20079 ft | 406 kts | 301° |
| 2026-05-01 09:49 | 43.04350 | -2.36363 | 19549 ft | 403 kts | 301° |
| 2026-05-01 09:50 | 43.05866 | -2.39590 | 18716 ft | 407 kts | 300° |
| 2026-05-01 09:50 | 43.07406 | -2.42882 | 17755 ft | 414 kts | 300° |
| 2026-05-01 09:50 | 43.08959 | -2.46205 | 17042 ft | 413 kts | 300° |
| 2026-05-01 09:50 | 43.10480 | -2.49461 | 16408 ft | 410 kts | 301° |
| 2026-05-01 09:51 | 43.10891 | -2.50342 | 16237 ft | 409 kts | 300° |
| 2026-05-01 09:51 | 43.12411 | -2.53613 | 15647 ft | 406 kts | 300° |
| 2026-05-01 09:51 | 43.13921 | -2.56862 | 15064 ft | 403 kts | 300° |
| 2026-05-01 09:51 | 43.15419 | -2.60084 | 14415 ft | 399 kts | 300° |
| 2026-05-01 09:52 | 43.16906 | -2.63287 | 13811 ft | 397 kts | 301° |
| 2026-05-01 09:52 | 43.18384 | -2.66470 | 13201 ft | 394 kts | 301° |
| 2026-05-01 09:52 | 43.19846 | -2.69617 | 12592 ft | 391 kts | 301° |
| 2026-05-01 09:52 | 43.21302 | -2.72752 | 11981 ft | 388 kts | 301° |
| 2026-05-01 09:53 | 43.22739 | -2.75859 | 11527 ft | 381 kts | 301° |
| 2026-05-01 09:53 | 43.24124 | -2.78860 | 11404 ft | 365 kts | 301° |
| 2026-05-01 09:53 | 43.25458 | -2.81748 | 11273 ft | 350 kts | 301° |
| 2026-05-01 09:53 | 43.26735 | -2.84519 | 10962 ft | 342 kts | 301° |
| 2026-05-01 09:54 | 43.28001 | -2.87272 | 10478 ft | 332 kts | 301° |
| 2026-05-01 09:54 | 43.29190 | -2.89853 | 10354 ft | 308 kts | 301° |
| 2026-05-01 09:54 | 43.30311 | -2.92244 | 10235 ft | 288 kts | 305° |
| 2026-05-01 09:54 | 43.31589 | -2.94246 | 10119 ft | 270 kts | 311° |
| 2026-05-01 09:55 | 43.32836 | -2.96078 | 9897 ft | 257 kts | 311° |
| 2026-05-01 09:55 | 43.34041 | -2.97861 | 9487 ft | 253 kts | 311° |
| 2026-05-01 09:55 | 43.35230 | -2.99622 | 8995 ft | 250 kts | 311° |
| 2026-05-01 09:55 | 43.36397 | -3.01349 | 8517 ft | 249 kts | 311° |
| 2026-05-01 09:56 | 43.37572 | -3.03084 | 8076 ft | 247 kts | 311° |
| 2026-05-01 09:56 | 43.38733 | -3.04803 | 7607 ft | 245 kts | 311° |
| 2026-05-01 09:56 | 43.39888 | -3.06516 | 7125 ft | 243 kts | 311° |
| 2026-05-01 09:56 | 43.41034 | -3.08219 | 6654 ft | 242 kts | 311° |
| 2026-05-01 09:57 | 43.42172 | -3.09913 | 6164 ft | 240 kts | 310° |
| 2026-05-01 09:57 | 43.43302 | -3.11597 | 5665 ft | 239 kts | 311° |
| 2026-05-01 09:57 | 43.44428 | -3.13271 | 5178 ft | 238 kts | 311° |
| 2026-05-01 09:57 | 43.45550 | -3.14937 | 4697 ft | 237 kts | 311° |
| 2026-05-01 09:58 | 43.46293 | -3.16044 | 4386 ft | 236 kts | 309° |
| 2026-05-01 09:58 | 43.47139 | -3.18715 | 3981 ft | 229 kts | 270° |
| 2026-05-01 09:58 | 43.47049 | -3.20139 | 3764 ft | 224 kts | 251° |
| 2026-05-01 09:58 | 43.45966 | -3.22469 | 3323 ft | 217 kts | 215° |
| 2026-05-01 09:59 | 43.45107 | -3.23158 | 3116 ft | 214 kts | 198° |
| 2026-05-01 09:59 | 43.43662 | -3.23430 | 3015 ft | 211 kts | 172° |
| 2026-05-01 09:59 | 43.42271 | -3.22815 | 3018 ft | 213 kts | 148° |
| 2026-05-01 09:59 | 43.41206 | -3.21445 | 3016 ft | 215 kts | 124° |
| 2026-05-01 10:00 | 43.40502 | -3.19614 | 3016 ft | 217 kts | 118° |
| 2026-05-01 10:00 | 43.39834 | -3.17748 | 3016 ft | 217 kts | 118° |
| 2026-05-01 10:00 | 43.39162 | -3.15890 | 3016 ft | 216 kts | 118° |
| 2026-05-01 10:00 | 43.38495 | -3.14053 | 3014 ft | 217 kts | 118° |
| 2026-05-01 10:01 | 43.37818 | -3.12190 | 3014 ft | 218 kts | 118° |
| 2026-05-01 10:01 | 43.37140 | -3.10325 | 2951 ft | 219 kts | 118° |
| 2026-05-01 10:01 | 43.36460 | -3.08457 | 2735 ft | 217 kts | 118° |
| 2026-05-01 10:01 | 43.35782 | -3.06593 | 2429 ft | 218 kts | 118° |
| 2026-05-01 10:02 | 43.35110 | -3.04752 | 2138 ft | 216 kts | 117° |
| 2026-05-01 10:02 | 43.34459 | -3.02963 | 1859 ft | 203 kts | 117° |
| 2026-05-01 10:02 | 43.33844 | -3.01277 | 1618 ft | 191 kts | 116° |
| 2026-05-01 10:02 | 43.33272 | -2.99711 | 1360 ft | 178 kts | 116° |
| 2026-05-01 10:03 | 43.32731 | -2.98251 | 1155 ft | 159 kts | 115° |
| 2026-05-01 10:03 | 43.32252 | -2.96944 | 860 ft | 147 kts | 116° |
| 2026-05-01 10:03 | 43.31807 | -2.95728 | 677 ft | 140 kts | 114° |
| 2026-05-01 10:03 | 43.31377 | -2.94545 | 503 ft | 138 kts | 116° |
| 2026-05-01 10:04 | 43.30953 | -2.93367 | 329 ft | 137 kts | 116° |
| 2026-05-01 10:04 | 43.30526 | -2.92199 | 166 ft | 136 kts | 115° |
| 2026-05-01 10:04 | 43.30157 | -2.91189 | 127 ft | 84 kts | 117° |
| 2026-05-01 10:04 | 43.30026 | -2.90833 | 127 ft | 32 kts | 117° |
| 2026-05-01 10:05 | 43.29940 | -2.90557 | 128 ft | 31 kts | 103° |
| 2026-05-01 10:05 | 43.29930 | -2.90274 | 133 ft | 19 kts | 77° |
| 2026-05-01 10:05 | 43.30015 | -2.90295 | 132 ft | 16 kts | 301° |
| 2026-05-01 10:05 | 43.30074 | -2.90452 | 132 ft | 22 kts | 296° |
| 2026-05-01 10:06 | 43.30170 | -2.90563 | 132 ft | 19 kts | 20° |
| 2026-05-01 10:06 | 43.30294 | -2.90565 | 132 ft | 20 kts | 327° |
| 2026-05-01 10:06 | 43.30398 | -2.90584 | 132 ft | 12 kts | 26° |
| 2026-05-01 10:06 | 43.30408 | -2.90578 | 132 ft | 0 kts | 26° |